Time;durP1;ratioP1;P1;durP2;ratioP2;P2;SDS_P1;SDS_P2;PMS_P1;PMS_P2;Temp;Humidity;BMP_temperature;BMP_pressure;BME280_temperature;BME280_humidity;BME280_pressure;Samples;Min_cycle;Max_cycle;Signal;HPM_P1;HPM_P2
2022/07/06 04:21:26;;;;;;;36.10;18.92;;;;;;;20.45;77.57;101158.31;5066122;28;20389;-86
2022/07/06 04:23:51;;;;;;;33.17;19.02;;;;;;;20.57;77.27;101156.47;5043336;28;20438;-87
2022/07/06 04:26:17;;;;;;;30.70;18.45;;;;;;;20.95;75.27;101155.06;5067052;28;20082;-83
2022/07/06 04:28:42;;;;;;;32.90;18.60;;;;;;;21.08;74.43;101176.72;5066867;28;20114;-88
2022/07/06 04:31:08;;;;;;;34.30;19.33;;;;;;;21.09;75.69;101178.41;5050817;28;20024;-89
2022/07/06 04:33:34;;;;;;;30.25;19.15;;;;;;;21.19;74.88;101179.28;5049071;28;20040;-89
2022/07/06 04:35:59;;;;;;;35.92;19.00;;;;;;;21.13;74.86;101169.28;5049076;28;20482;-86
2022/07/06 04:38:25;;;;;;;33.60;19.48;;;;;;;21.21;75.07;101182.63;5049152;28;20082;-86
2022/07/06 04:40:50;;;;;;;36.63;18.33;;;;;;;21.26;74.11;101175.22;5067480;28;20033;-89
2022/07/06 04:43:16;;;;;;;29.65;18.40;;;;;;;21.22;74.18;101184.28;5047581;28;20042;-87
2022/07/06 04:45:41;;;;;;;30.30;17.52;;;;;;;21.30;73.39;101187.13;5047404;28;20449;-92
2022/07/06 04:48:08;;;;;;;32.60;17.67;;;;;;;21.33;73.82;101193.91;5049913;28;20032;-89
2022/07/06 04:50:33;;;;;;;28.70;17.70;;;;;;;21.31;74.41;101183.53;5065839;28;20025;-91
2022/07/06 04:52:59;;;;;;;30.17;18.13;;;;;;;21.51;73.72;101175.72;5049101;28;20033;-89
2022/07/06 04:55:24;;;;;;;32.25;17.63;;;;;;;21.56;72.98;101181.44;5063124;28;20071;-89
2022/07/06 04:57:51;;;;;;;30.20;18.50;;;;;;;21.62;73.70;101186.16;5044499;28;20059;-95
2022/07/06 05:00:17;;;;;;;29.88;19.25;;;;;;;21.58;73.61;101179.50;5046028;28;20124;-88
2022/07/06 05:02:43;;;;;;;34.53;19.05;;;;;;;21.63;73.06;101183.41;5047366;28;20100;-94
2022/07/06 05:05:09;;;;;;;37.40;21.13;;;;;;;21.65;72.92;101186.75;5033309;28;20494;-88
2022/07/06 05:07:39;;;;;;;30.73;18.90;;;;;;;21.55;72.79;101159.56;5065136;28;20021;-88
2022/07/06 05:10:08;;;;;;;32.22;20.00;;;;;;;21.81;72.82;101190.66;5042326;28;20104;-92
2022/07/06 05:12:33;;;;;;;84.50;50.58;;;;;;;21.87;72.48;101196.25;5013599;28;20033;-94
2022/07/06 05:14:59;;;;;;;43.97;24.45;;;;;;;21.98;72.51;101195.28;5013003;23;20085;-92
2022/07/06 05:17:25;;;;;;;119.00;63.00;;;;;;;21.88;71.78;101178.63;4975150;28;20512;-84
2022/07/06 05:19:50;;;;;;;34.78;20.98;;;;;;;21.98;72.07;101201.41;4969100;28;20022;-83
2022/07/06 05:22:16;;;;;;;32.80;20.20;;;;;;;21.98;72.03;101198.75;4983236;28;20396;-85
2022/07/06 05:24:41;;;;;;;37.35;21.13;;;;;;;21.95;72.19;101193.78;4981804;28;20526;-86
2022/07/06 05:27:07;;;;;;;36.88;21.50;;;;;;;22.00;72.18;101202.09;4986977;28;20070;-85
2022/07/06 05:29:32;;;;;;;39.60;22.75;;;;;;;21.94;72.74;101186.84;4982802;28;20034;-85
2022/07/06 05:31:58;;;;;;;40.08;22.58;;;;;;;21.96;72.46;101184.91;4973783;28;20102;-88
2022/07/06 05:34:23;;;;;;;102.25;54.85;;;;;;;22.07;72.34;101185.78;4969465;28;20039;-87
2022/07/06 05:36:49;;;;;;;146.93;75.57;;;;;;;22.28;72.58;101192.59;4966430;28;20034;-90
2022/07/06 05:39:19;;;;;;;48.70;26.02;;;;;;;22.30;71.87;101192.47;4972781;28;20042;-83
2022/07/06 05:41:45;;;;;;;56.72;26.67;;;;;;;22.37;72.20;101182.22;4956807;28;20082;-87
2022/07/06 05:44:10;;;;;;;49.28;26.75;;;;;;;22.56;72.08;101190.97;4972974;28;20373;-90
2022/07/06 05:46:36;;;;;;;47.15;25.25;;;;;;;22.63;72.45;101198.34;4957863;28;20038;-91
2022/07/06 05:51:45;;;;;;;52.92;26.25;;;;;;;22.64;71.58;101195.56;4970013;28;20201;-84
2022/07/06 05:54:11;;;;;;;51.35;26.33;;;;;;;22.72;72.06;101200.97;4972126;28;20026;-83
2022/07/06 05:56:36;;;;;;;51.28;28.30;;;;;;;22.77;71.41;101200.53;4973386;28;20045;-84
2022/07/06 05:59:02;;;;;;;42.53;25.98;;;;;;;22.79;70.91;101188.03;4977605;28;20031;-84
2022/07/06 06:01:28;;;;;;;46.97;25.90;;;;;;;22.73;70.89;101178.06;4969582;28;20035;-84
2022/07/06 06:03:53;;;;;;;49.20;27.65;;;;;;;22.82;71.05;101193.03;4971834;28;20061;-85
2022/07/06 06:06:19;;;;;;;56.72;29.25;;;;;;;22.83;71.19;101176.25;4972670;28;20062;-86
2022/07/06 06:08:44;;;;;;;50.95;27.02;;;;;;;23.02;71.13;101186.78;4971810;28;20050;-84
2022/07/06 06:11:10;;;;;;;47.40;27.63;;;;;;;23.17;71.05;101184.53;4961165;28;20105;-83
2022/07/06 06:13:35;;;;;;;53.05;28.98;;;;;;;23.21;69.71;101185.09;4971622;28;20078;-86
2022/07/06 06:16:01;;;;;;;51.15;26.55;;;;;;;23.17;68.58;101193.28;4972789;28;20057;-84
2022/07/06 06:18:26;;;;;;;62.28;30.25;;;;;;;23.24;68.44;101187.44;4971206;28;20031;-83
2022/07/06 06:20:52;;;;;;;48.40;27.40;;;;;;;23.06;67.85;101164.41;4973278;28;20508;-83
2022/07/06 06:23:17;;;;;;;58.13;31.33;;;;;;;23.24;69.20;101192.72;4954941;28;20122;-84
2022/07/06 06:25:43;;;;;;;50.03;28.67;;;;;;;23.14;68.93;101180.38;4970789;28;20037;-84
2022/07/06 06:28:10;;;;;;;53.72;30.00;;;;;;;23.29;68.75;101179.91;4967802;28;20158;-81
2022/07/06 06:30:36;;;;;;;54.97;30.33;;;;;;;23.40;68.43;101188.50;4971013;28;20516;-83
2022/07/06 06:33:15;;;;;;;150.13;79.10;;;;;;;23.45;68.25;101180.13;4955707;28;20035;-87
2022/07/06 06:35:48;;;;;;;51.90;28.90;;;;;;;23.53;67.82;101188.16;4970962;28;20030;-84
2022/07/06 06:38:14;;;;;;;54.97;29.95;;;;;;;23.50;67.33;101196.38;4956214;28;20377;-87
2022/07/06 06:40:39;;;;;;;55.40;31.05;;;;;;;23.53;67.39;101187.34;4954884;28;20034;-84
2022/07/06 06:43:05;;;;;;;51.47;28.00;;;;;;;23.55;66.96;101195.94;4969649;28;20035;-91
2022/07/06 06:45:30;;;;;;;51.33;27.60;;;;;;;23.83;67.16;101183.59;4953981;28;20057;-88
2022/07/06 06:47:56;;;;;;;54.13;30.25;;;;;;;23.59;67.60;101187.59;4971325;28;20120;-88
2022/07/06 06:50:23;;;;;;;48.47;29.00;;;;;;;23.51;67.56;101191.94;4969893;28;20039;-85
2022/07/06 06:52:49;;;;;;;71.00;41.05;;;;;;;23.55;68.03;101191.47;4939708;28;20026;-88
2022/07/06 06:55:15;;;;;;;51.15;29.63;;;;;;;23.60;67.65;101178.72;4955427;28;20034;-86
2022/07/06 06:57:40;;;;;;;56.65;30.00;;;;;;;23.42;67.39;101183.06;4971686;28;20031;-85
2022/07/06 07:00:06;;;;;;;55.05;29.17;;;;;;;23.40;67.77;101192.91;4954852;28;20023;-88
2022/07/06 07:02:32;;;;;;;49.47;29.23;;;;;;;23.30;68.41;101179.75;4956134;28;20039;-88
2022/07/06 07:04:57;;;;;;;51.80;29.73;;;;;;;23.19;68.45;101175.47;4970766;28;20090;-89
2022/07/06 07:07:23;;;;;;;50.92;29.52;;;;;;;22.90;69.11;101149.16;4940249;28;20050;-88
2022/07/06 07:09:48;;;;;;;56.47;29.58;;;;;;;23.06;69.94;101168.84;4950993;28;20043;-83
2022/07/06 07:12:16;;;;;;;52.72;28.48;;;;;;;23.09;69.58;101179.13;4953763;28;20034;-84
2022/07/06 07:14:42;;;;;;;45.65;27.08;;;;;;;23.05;68.33;101183.88;4971171;28;20053;-90
2022/07/06 07:17:08;;;;;;;48.92;29.40;;;;;;;23.05;68.26;101175.13;4972519;28;20491;-82
2022/07/06 07:19:33;;;;;;;58.67;30.85;;;;;;;23.29;68.75;101182.53;4953629;28;20031;-83
2022/07/06 07:21:59;;;;;;;52.95;31.45;;;;;;;23.28;68.69;101149.19;4954056;28;20026;-86
2022/07/06 07:24:24;;;;;;;49.00;29.17;;;;;;;23.46;67.20;101181.78;4968150;28;20042;-90
2022/07/06 07:26:50;;;;;;;46.65;29.85;;;;;;;23.45;68.02;101174.84;4970440;28;20042;-84
2022/07/06 07:29:15;;;;;;;56.55;30.83;;;;;;;23.27;67.39;101169.50;4969763;28;20129;-82
2022/07/06 07:31:41;;;;;;;49.53;28.58;;;;;;;23.35;66.48;101184.63;4977675;28;20488;-83
2022/07/06 07:34:06;;;;;;;53.53;29.42;;;;;;;23.29;67.23;101174.63;4937550;28;20058;-83
2022/07/06 07:36:32;;;;;;;54.95;28.88;;;;;;;23.23;66.22;101169.94;4969413;28;20405;-90
2022/07/06 07:38:57;;;;;;;55.38;29.42;;;;;;;23.41;66.26;101178.78;4969347;28;20059;-85
2022/07/06 07:41:23;;;;;;;48.25;26.80;;;;;;;23.36;65.31;101181.00;4953600;28;20031;-89
2022/07/06 07:43:48;;;;;;;61.88;35.92;;;;;;;23.13;64.61;101154.97;4953395;28;20039;-88
2022/07/06 07:46:14;;;;;;;125.95;73.38;;;;;;;23.41;64.91;101176.13;4991173;28;20110;-88
2022/07/06 07:48:39;;;;;;;53.55;30.30;;;;;;;23.31;64.46;101141.00;4968756;28;20427;-89
2022/07/06 07:51:05;;;;;;;52.17;29.25;;;;;;;23.66;64.97;101182.56;4982641;28;20082;-90
2022/07/06 07:53:30;;;;;;;51.53;29.67;;;;;;;23.74;64.65;101175.56;4966866;28;20058;-84
2022/07/06 07:55:56;;;;;;;54.17;29.85;;;;;;;23.91;64.97;101181.06;4951574;28;20030;-87
2022/07/06 07:58:21;;;;;;;54.20;29.65;;;;;;;23.92;64.95;101177.44;4953013;28;20041;-88
2022/07/06 08:00:47;;;;;;;47.25;29.27;;;;;;;24.01;64.60;101198.53;4950278;29;20027;-83
2022/07/06 08:03:12;;;;;;;42.05;26.67;;;;;;;23.87;63.49;101174.41;4955531;28;20029;-86
2022/07/06 08:05:38;;;;;;;52.03;28.48;;;;;;;23.99;63.64;101187.28;4937688;28;20081;-92
2022/07/06 08:08:04;;;;;;;48.20;29.02;;;;;;;23.86;63.38;101201.78;4937973;28;20507;-86
2022/07/06 08:10:30;;;;;;;42.50;26.10;;;;;;;23.82;63.40;101200.44;4950036;28;20047;-84
2022/07/06 08:12:55;;;;;;;46.92;27.90;;;;;;;23.79;63.27;101190.16;4969326;28;20038;-85
2022/07/06 08:15:25;;;;;;;46.83;28.20;;;;;;;23.88;64.01;101197.19;4967322;28;20059;-94
2022/07/06 08:17:50;;;;;;;50.17;25.95;;;;;;;23.65;62.77;101176.47;4941533;28;20026;-92
2022/07/06 08:20:16;;;;;;;49.42;29.85;;;;;;;23.87;63.40;101196.34;4955583;28;20122;-89
2022/07/06 08:22:42;;;;;;;51.22;28.58;;;;;;;23.83;62.23;101199.47;4956583;28;20034;-93
2022/07/06 08:25:09;;;;;;;49.38;28.33;;;;;;;23.71;62.71;101186.44;4954783;28;20030;-95
2022/07/06 08:27:35;;;;;;;49.10;28.20;;;;;;;23.84;62.94;101191.38;4955699;28;20041;-90
2022/07/06 08:30:01;;;;;;;51.40;26.50;;;;;;;23.86;62.00;101209.72;4974242;28;20400;-91
2022/07/06 08:32:26;;;;;;;58.13;29.70;;;;;;;23.90;62.51;101201.38;4956229;28;20035;-92
2022/07/06 08:34:52;;;;;;;50.38;28.52;;;;;;;23.97;61.81;101196.31;4954677;28;20069;-92
2022/07/06 08:37:19;;;;;;;46.00;27.33;;;;;;;23.95;60.53;101199.09;4952262;28;20065;-87
2022/07/06 08:39:45;;;;;;;37.95;24.90;;;;;;;23.88;59.78;101198.03;4956737;28;20066;-86
2022/07/06 08:42:10;;;;;;;44.17;25.98;;;;;;;24.10;60.56;101199.44;4969713;28;20026;-87
2022/07/06 08:44:36;;;;;;;49.33;28.92;;;;;;;24.23;60.88;101201.72;4954614;28;20050;-92
2022/07/06 08:47:04;;;;;;;38.60;24.23;;;;;;;24.16;60.33;101204.13;4953410;28;20045;-89
2022/07/06 08:49:31;;;;;;;66.75;39.63;;;;;;;24.18;59.85;101199.50;4954182;28;20035;-92
2022/07/06 08:51:56;;;;;;;62.65;37.83;;;;;;;24.07;58.59;101181.22;4952511;28;20606;-88
2022/07/06 08:54:22;;;;;;;43.97;26.70;;;;;;;24.25;59.61;101202.38;4952239;28;20062;-92
2022/07/06 08:56:48;;;;;;;40.30;23.02;;;;;;;24.16;59.17;101195.34;4936461;28;20034;-89
2022/07/06 08:59:16;;;;;;;32.55;21.33;;;;;;;24.25;58.04;101190.00;4969781;28;20079;-92
2022/07/06 09:01:41;;;;;;;36.80;23.45;;;;;;;24.31;58.81;101199.19;4943819;28;20558;-87
2022/07/06 09:04:07;;;;;;;36.45;21.85;;;;;;;24.21;58.52;101177.25;4951667;28;20118;-84
2022/07/06 09:06:32;;;;;;;36.25;23.13;;;;;;;24.40;58.88;101192.19;4952130;28;20157;-91
2022/07/06 09:08:58;;;;;;;36.55;22.63;;;;;;;24.30;58.20;101189.56;4939142;28;20080;-92
2022/07/06 09:11:25;;;;;;;34.50;21.63;;;;;;;24.23;56.94;101164.72;4934915;28;20104;-87
2022/07/06 09:13:51;;;;;;;46.05;26.50;;;;;;;24.39;57.76;101195.81;4970585;28;20042;-88
2022/07/06 09:16:17;;;;;;;34.60;23.23;;;;;;;24.44;58.40;101189.06;4954398;28;20015;-90
2022/07/06 09:18:45;;;;;;;37.33;23.67;;;;;;;24.45;57.63;101190.72;4955089;28;20031;-92
2022/07/06 09:21:11;;;;;;;41.97;22.90;;;;;;;24.60;58.12;101191.88;4945006;28;20038;-93
2022/07/06 09:23:37;;;;;;;37.47;21.40;;;;;;;24.72;57.57;101200.38;4939902;28;20113;-85
2022/07/06 09:26:04;;;;;;;39.58;23.40;;;;;;;24.57;57.81;101186.03;4954445;28;20089;-84
2022/07/06 09:28:45;;;;;;;36.65;22.05;;;;;;;24.63;56.75;101203.94;4970960;28;20062;-86
2022/07/06 09:31:10;;;;;;;30.83;19.63;;;;;;;24.58;56.33;101200.91;4956995;28;20033;-89
2022/07/06 09:33:36;;;;;;;31.13;20.20;;;;;;;24.63;56.55;101219.81;4971328;28;20426;-86
2022/07/06 09:36:02;;;;;;;39.97;22.63;;;;;;;24.59;57.56;101202.59;4956209;28;20031;-88
2022/07/06 09:38:28;;;;;;;28.70;19.25;;;;;;;24.62;56.63;101202.28;4954958;28;20027;-86
2022/07/06 09:40:54;;;;;;;31.85;20.15;;;;;;;24.57;56.64;101199.25;4970655;28;20039;-84
2022/07/06 09:43:23;;;;;;;45.90;23.52;;;;;;;24.70;56.73;101209.47;4954929;28;20476;-89
2022/07/06 09:45:52;;;;;;;38.92;20.92;;;;;;;24.80;56.04;101204.91;4956166;28;20030;-83
2022/07/06 09:48:22;;;;;;;33.40;21.17;;;;;;;24.91;56.27;101195.91;4970646;28;20033;-84
2022/07/06 09:50:58;;;;;;;28.77;19.38;;;;;;;24.84;54.25;101185.09;4938608;28;20030;-83
2022/07/06 09:53:25;;;;;;;38.50;26.02;;;;;;;24.99;53.74;101199.44;4969489;28;20118;-83
2022/07/06 09:55:52;;;;;;;30.58;21.88;;;;;;;25.16;53.85;101210.97;4954330;28;20488;-84
2022/07/06 09:58:18;;;;;;;32.33;21.58;;;;;;;25.25;53.57;101194.16;4938284;28;20030;-82
2022/07/06 10:00:44;;;;;;;27.27;19.45;;;;;;;25.29;52.08;101202.63;4938492;28;20022;-84
2022/07/06 10:03:10;;;;;;;34.08;24.00;;;;;;;25.33;51.72;101185.44;4951605;28;20118;-85
2022/07/06 10:05:40;;;;;;;37.97;25.48;;;;;;;25.40;51.45;101191.78;4955973;28;20027;-84
2022/07/06 10:08:08;;;;;;;33.92;20.65;;;;;;;25.38;52.14;101175.22;4956897;28;20035;-85
2022/07/06 10:10:35;;;;;;;26.33;19.88;;;;;;;25.66;52.38;101186.41;4957024;28;20031;-86
2022/07/06 10:13:00;;;;;;;28.48;19.85;;;;;;;25.77;50.84;101180.06;4949356;28;20051;-84
2022/07/06 10:15:27;;;;;;;26.70;20.25;;;;;;;25.69;50.45;101181.66;4945976;28;20117;-87
2022/07/06 10:17:53;;;;;;;29.95;21.65;;;;;;;25.79;51.03;101181.53;4965227;28;20065;-86
2022/07/06 10:20:19;;;;;;;41.47;27.75;;;;;;;25.88;50.24;101182.41;4949353;28;20030;-86
2022/07/06 10:22:48;;;;;;;23.55;18.63;;;;;;;25.84;50.03;101165.16;4963696;28;20067;-86
2022/07/06 10:25:18;;;;;;;25.67;19.20;;;;;;;26.11;49.65;101179.97;4944532;28;20030;-85
2022/07/06 10:27:47;;;;;;;24.75;19.13;;;;;;;26.21;49.80;101170.88;4945332;28;20050;-86
2022/07/06 10:30:14;;;;;;;22.17;18.42;;;;;;;26.27;49.31;101158.78;4948245;28;20031;-85
2022/07/06 10:32:40;;;;;;;23.23;18.80;;;;;;;26.35;48.99;101153.50;4971958;28;20082;-90
2022/07/06 10:35:06;;;;;;;23.63;18.50;;;;;;;26.49;48.83;101163.47;4943283;28;20030;-89
2022/07/06 10:37:33;;;;;;;22.95;18.42;;;;;;;26.45;48.42;101156.84;4950601;28;20055;-87
2022/07/06 10:42:53;;;;;;;27.17;19.10;;;;;;;26.48;48.89;101155.69;4950425;28;20038;-88
2022/07/06 10:45:28;;;;;;;26.38;20.02;;;;;;;26.54;48.69;101161.13;4980841;28;20039;-87
2022/07/06 10:48:17;;;;;;;25.27;18.88;;;;;;;26.54;47.72;101155.81;4967323;28;20030;-89
2022/07/06 10:50:47;;;;;;;27.05;18.98;;;;;;;26.70;49.43;101156.81;4946372;28;20061;-87
2022/07/06 10:53:14;;;;;;;24.02;17.58;;;;;;;26.73;47.29;101136.06;4949431;28;21753;-86
2022/07/06 10:55:41;;;;;;;26.30;18.90;;;;;;;26.87;46.99;101146.03;4957650;28;20023;-85
2022/07/06 10:58:06;;;;;;;23.00;18.98;;;;;;;26.94;47.03;101140.03;4949097;28;20054;-91
2022/07/06 11:00:51;;;;;;;26.30;20.10;;;;;;;27.09;46.48;101147.16;4947463;28;20489;-88
2022/07/06 11:04:02;;;;;;;38.33;28.48;;;;;;;26.94;46.98;101140.88;4969924;28;20023;-88
2022/07/06 11:06:29;;;;;;;80.90;65.45;;;;;;;26.94;46.55;101124.94;4965406;28;20078;-91
2022/07/06 11:08:56;;;;;;;24.27;18.38;;;;;;;26.99;46.23;101138.53;4932890;28;20039;-91
2022/07/06 11:11:31;;;;;;;17.67;15.32;;;;;;;26.88;46.03;101136.22;4953056;28;20432;-92
2022/07/06 11:14:14;;;;;;;16.88;15.07;;;;;;;27.01;47.68;101144.50;4952329;28;20046;-91
2022/07/06 11:16:48;;;;;;;19.92;13.90;;;;;;;27.08;45.75;101148.16;4951172;28;20109;-93
2022/07/06 11:19:15;;;;;;;16.48;13.80;;;;;;;27.14;46.05;101142.19;4970803;28;20041;-89
2022/07/06 11:21:57;;;;;;;19.58;15.40;;;;;;;27.24;44.99;101135.84;4966476;28;20050;-93
2022/07/06 11:24:26;;;;;;;18.73;14.13;;;;;;;27.35;45.53;101132.81;4967928;28;20050;-88
2022/07/06 11:26:52;;;;;;;16.85;14.90;;;;;;;27.55;45.71;101138.53;4949556;28;20098;-90
2022/07/06 11:29:22;;;;;;;16.30;13.63;;;;;;;27.65;43.49;101132.03;4947455;28;20483;-89
2022/07/06 11:31:49;;;;;;;19.15;15.30;;;;;;;27.57;44.07;101126.72;4950592;28;20023;-90
2022/07/06 11:34:22;;;;;;;13.70;10.02;;;;;;;27.53;42.05;101125.44;4950536;28;20054;-92
2022/07/06 11:36:48;;;;;;;16.27;10.30;;;;;;;27.45;42.39;101109.53;4948020;28;20030;-86
2022/07/06 11:39:14;;;;;;;15.07;11.70;;;;;;;27.54;42.51;101110.31;4982185;28;20478;-88
2022/07/06 11:41:39;;;;;;;12.65;10.32;;;;;;;27.63;42.30;101115.41;4964529;28;20026;-87
2022/07/06 11:44:05;;;;;;;14.90;9.38;;;;;;;27.72;41.50;101122.34;4946563;28;20077;-90
2022/07/06 11:46:31;;;;;;;14.52;9.95;;;;;;;27.74;42.46;101105.44;4964488;28;20104;-85
2022/07/06 11:49:02;;;;;;;9.95;8.93;;;;;;;27.79;41.55;101087.09;4963438;28;20489;-87
2022/07/06 11:51:29;;;;;;;10.40;9.30;;;;;;;28.08;40.71;101111.16;4956185;28;21225;-86
2022/07/06 11:53:56;;;;;;;10.77;8.50;;;;;;;28.22;40.28;101109.53;4972123;28;20027;-86
2022/07/06 11:56:25;;;;;;;9.50;7.97;;;;;;;28.33;40.28;101089.72;4956587;28;20038;-86
2022/07/06 11:58:51;;;;;;;11.55;8.82;;;;;;;28.18;41.82;101101.09;4962489;28;20027;-86
2022/07/06 12:01:17;;;;;;;10.43;8.10;;;;;;;28.06;40.76;101099.06;4942085;28;20031;-89
2022/07/06 12:03:43;;;;;;;10.40;9.40;;;;;;;28.03;41.69;101094.09;4980663;28;20521;-91
2022/07/06 12:06:22;;;;;;;16.63;10.02;;;;;;;28.01;41.95;101086.28;4982388;28;20113;-87
2022/07/06 12:08:55;;;;;;;12.98;10.02;;;;;;;28.06;42.52;101093.72;4978831;28;20023;-84
2022/07/06 12:11:22;;;;;;;14.50;11.60;;;;;;;27.90;41.53;101090.19;4968453;28;20039;-85
2022/07/06 12:13:49;;;;;;;14.55;12.60;;;;;;;27.89;41.44;101087.69;4970213;28;20054;-85
2022/07/06 12:16:15;;;;;;;9.50;8.57;;;;;;;27.94;40.77;101074.72;4954056;28;20030;-85
2022/07/06 12:18:41;;;;;;;18.30;16.40;;;;;;;28.25;40.74;101078.13;4951038;28;20126;-84
2022/07/06 12:21:12;;;;;;;10.70;9.00;;;;;;;28.35;41.92;101079.72;4932644;28;20575;-83
2022/07/06 12:23:39;;;;;;;18.65;14.05;;;;;;;28.48;40.85;101087.91;4953427;28;20111;-91
2022/07/06 12:26:05;;;;;;;9.63;8.60;;;;;;;28.57;39.67;101084.16;4948522;28;20031;-84
2022/07/06 12:28:30;;;;;;;13.07;9.48;;;;;;;28.80;39.40;101081.44;4967820;28;20035;-85
2022/07/06 12:30:55;;;;;;;21.15;17.42;;;;;;;28.92;38.67;101071.19;4971247;28;20030;-85
2022/07/06 12:33:21;;;;;;;15.13;10.65;;;;;;;29.06;39.96;101076.50;4970227;28;20548;-86
2022/07/06 12:35:46;;;;;;;17.33;8.20;;;;;;;29.07;39.13;101072.00;4966929;28;20027;-84
2022/07/06 12:38:12;;;;;;;17.65;13.38;;;;;;;29.19;39.61;101065.19;4972312;28;20058;-83
2022/07/06 12:40:38;;;;;;;14.63;10.02;;;;;;;29.14;39.49;101078.25;4963813;28;20396;-88
2022/07/06 12:43:04;;;;;;;9.75;8.50;;;;;;;29.02;39.06;101058.44;4966886;28;20093;-84
2022/07/06 12:45:30;;;;;;;13.68;7.95;;;;;;;29.03;39.01;101070.72;4967491;28;20415;-91
2022/07/06 12:48:02;;;;;;;12.88;7.50;;;;;;;29.01;38.21;101078.09;4975497;28;20058;-87
2022/07/06 12:50:46;;;;;;;9.80;8.07;;;;;;;29.13;38.65;101065.94;4961982;28;20061;-85
2022/07/06 12:53:32;;;;;;;9.65;7.85;;;;;;;29.06;38.89;101081.00;4959223;28;20074;-84
2022/07/06 12:56:13;;;;;;;12.30;8.30;;;;;;;28.74;38.71;101061.69;4971801;28;20038;-84
2022/07/06 12:58:39;;;;;;;10.95;9.40;;;;;;;28.61;39.87;101071.31;4981194;28;20035;-85
2022/07/06 13:01:04;;;;;;;15.00;9.88;;;;;;;28.56;40.41;101074.53;4944722;28;20508;-82
2022/07/06 13:03:40;;;;;;;12.25;8.57;;;;;;;28.70;39.37;101071.03;4980424;28;20035;-84
2022/07/06 13:06:05;;;;;;;12.48;8.38;;;;;;;28.88;39.66;101061.88;4983059;28;20030;-86
2022/07/06 13:08:31;;;;;;;11.60;7.63;;;;;;;28.95;39.02;101062.84;4966405;28;20038;-85
2022/07/06 13:10:56;;;;;;;10.25;7.45;;;;;;;28.74;39.15;101056.38;4968171;28;20035;-88
2022/07/06 13:13:22;;;;;;;11.05;8.65;;;;;;;28.54;39.85;101055.25;4945702;28;20111;-87
2022/07/06 13:15:48;;;;;;;14.43;10.20;;;;;;;28.27;39.14;101065.44;4967370;28;20041;-88
2022/07/06 13:18:13;;;;;;;9.70;8.70;;;;;;;28.22;39.19;101065.19;4935634;28;20054;-86
2022/07/06 13:20:39;;;;;;;12.10;9.27;;;;;;;28.17;40.53;101064.88;4961158;28;20753;-83
2022/07/06 13:23:05;;;;;;;10.20;8.30;;;;;;;28.16;40.11;101063.22;4963223;28;20600;-82
2022/07/06 13:25:30;;;;;;;11.43;8.23;;;;;;;28.14;40.89;101054.59;4951321;28;20054;-81
2022/07/06 13:27:56;;;;;;;12.50;8.90;;;;;;;28.11;41.07;101027.50;4967262;28;20033;-83
2022/07/06 13:30:21;;;;;;;10.95;8.10;;;;;;;28.37;40.67;101061.75;4967822;28;20089;-84
2022/07/06 13:32:47;;;;;;;9.73;7.43;;;;;;;28.15;41.21;101047.44;4949988;28;20118;-84
2022/07/06 13:35:12;;;;;;;10.90;7.72;;;;;;;28.20;40.32;101053.03;4967668;28;20102;-86
2022/07/06 13:37:38;;;;;;;13.35;9.25;;;;;;;28.02;41.34;101056.00;4967360;28;20084;-84
2022/07/06 13:40:04;;;;;;;24.02;17.42;;;;;;;27.96;41.02;101072.69;4965171;28;20071;-85
2022/07/06 13:42:29;;;;;;;24.20;17.88;;;;;;;27.64;40.79;101034.69;4949597;28;20031;-84
2022/07/06 13:44:55;;;;;;;33.55;24.33;;;;;;;27.83;41.37;101049.38;4957133;28;20039;-83
2022/07/06 13:47:20;;;;;;;28.63;21.52;;;;;;;27.80;40.62;101048.88;4988189;28;20026;-85
2022/07/06 13:49:47;;;;;;;30.48;21.20;;;;;;;27.72;40.87;101034.63;4940396;28;20069;-85
2022/07/06 13:52:13;;;;;;;30.60;19.83;;;;;;;27.77;41.99;101043.91;4971330;28;20034;-86
